createdAt,value
2022-08-05T00:01:27.987Z,4.40
2022-08-05T00:03:56.789Z,4.28
2022-08-05T00:06:32.470Z,4.45
2022-08-05T00:09:00.711Z,4.07
2022-08-05T00:11:34.445Z,4.13
2022-08-05T00:14:12.981Z,3.80
2022-08-05T00:16:52.347Z,3.88
2022-08-05T00:19:22.211Z,3.75
2022-08-05T00:21:49.629Z,4.35
2022-08-05T00:24:19.254Z,4.65
2022-08-05T00:26:52.973Z,4.07
2022-08-05T00:29:22.646Z,4.25
2022-08-05T00:32:10.483Z,4.90
2022-08-05T00:35:05.263Z,5.18
2022-08-05T00:37:51.414Z,5.93
2022-08-05T00:40:27.345Z,5.22
2022-08-05T00:42:59.784Z,6.15
2022-08-05T00:45:38.066Z,5.00
2022-08-05T00:48:07.575Z,5.22
2022-08-05T00:50:35.014Z,5.35
2022-08-05T00:53:02.819Z,5.70
2022-08-05T00:55:42.601Z,6.22
2022-08-05T00:58:12.113Z,6.45
2022-08-05T01:00:40.979Z,6.80
2022-08-05T01:03:10.421Z,6.38
2022-08-05T01:05:49.386Z,6.82
2022-08-05T01:08:42.110Z,6.32
2022-08-05T01:11:14.301Z,6.25
2022-08-05T01:14:17.976Z,5.63
2022-08-05T01:17:03.287Z,7.28
2022-08-05T01:20:00.674Z,7.57
2022-08-05T01:22:43.186Z,6.75
2022-08-05T01:25:53.408Z,6.10
2022-08-05T01:28:26.646Z,6.00
2022-08-05T01:31:12.705Z,5.75
2022-08-05T01:33:49.133Z,6.93
2022-08-05T01:36:21.051Z,5.78
2022-08-05T01:38:56.693Z,6.07
2022-08-05T01:41:30.023Z,9.05
2022-08-05T01:44:01.009Z,7.70
2022-08-05T01:46:42.352Z,6.30
2022-08-05T01:49:24.324Z,6.10
2022-08-05T01:51:58.262Z,6.00
2022-08-05T01:54:46.282Z,7.13
2022-08-05T01:58:12.249Z,6.63
2022-08-05T02:00:05.680Z,8.32
2022-08-05T02:05:24.814Z,8.40
2022-08-05T02:08:01.019Z,8.65
2022-08-05T02:10:35.286Z,10.07
2022-08-05T02:13:27.926Z,10.30
2022-08-05T02:16:16.386Z,11.07
2022-08-05T02:18:50.469Z,10.63
2022-08-05T02:21:21.950Z,11.57
2022-08-05T02:23:53.443Z,13.05
2022-08-05T02:26:26.511Z,12.30
2022-08-05T02:28:56.156Z,11.82
2022-08-05T02:31:34.893Z,11.50
2022-08-05T02:34:06.711Z,12.48
2022-08-05T02:36:41.723Z,13.05
2022-08-05T02:39:12.651Z,13.77
2022-08-05T02:41:57.549Z,13.02
2022-08-05T02:44:30.085Z,12.68
2022-08-05T02:47:00.746Z,14.48
2022-08-05T02:49:35.945Z,14.02
2022-08-05T02:52:09.387Z,14.27
2022-08-05T02:54:41.276Z,13.95
2022-08-05T02:58:11.989Z,11.20
2022-08-05T03:00:01.233Z,8.90
2022-08-05T03:02:36.709Z,8.57
2022-08-05T03:05:05.080Z,9.70
2022-08-05T03:08:00.102Z,10.68
2022-08-05T03:10:22.073Z,9.98
2022-08-05T03:12:53.503Z,11.48
2022-08-05T03:15:21.343Z,11.43
2022-08-05T03:17:54.180Z,12.07
2022-08-05T03:20:24.292Z,11.05
2022-08-05T03:22:53.073Z,12.65
2022-08-05T03:25:33.175Z,11.32
2022-08-05T03:28:11.619Z,11.40
2022-08-05T03:30:42.420Z,12.00
2022-08-05T03:33:09.761Z,12.68
2022-08-05T03:35:41.188Z,12.35
2022-08-05T03:38:12.186Z,12.20
2022-08-05T03:40:48.613Z,13.70
2022-08-05T03:44:09.663Z,13.65
2022-08-05T03:46:04.982Z,12.45
2022-08-05T03:48:35.625Z,12.18
2022-08-05T03:52:38.506Z,12.50
2022-08-05T03:56:01.577Z,12.05
2022-08-05T03:57:16.122Z,12.35
2022-08-05T03:59:54.698Z,12.77
2022-08-05T04:02:37.396Z,11.57
2022-08-05T04:05:09.724Z,13.25
2022-08-05T04:07:53.047Z,12.13
2022-08-05T04:10:27.960Z,11.80
2022-08-05T04:12:58.988Z,11.80
2022-08-05T04:15:27.923Z,11.50
2022-08-05T04:18:03.785Z,14.50
2022-08-05T04:20:34.103Z,10.88
2022-08-05T04:23:01.099Z,11.57
2022-08-05T04:25:57.404Z,12.23
2022-08-05T04:28:15.206Z,10.88
2022-08-05T04:30:44.771Z,10.38
2022-08-05T04:33:12.897Z,10.23
2022-08-05T04:36:10.689Z,9.07
2022-08-05T04:38:39.506Z,8.90
2022-08-05T04:41:09.363Z,7.95
2022-08-05T04:43:40.564Z,7.50
2022-08-05T04:46:13.726Z,7.68
2022-08-05T04:48:54.935Z,7.00
2022-08-05T04:51:21.814Z,7.55
2022-08-05T04:53:50.009Z,6.93
2022-08-05T04:56:33.593Z,7.05
2022-08-05T04:59:21.964Z,5.75
2022-08-05T05:02:07.058Z,6.10
2022-08-05T05:04:38.114Z,6.60
2022-08-05T05:07:05.436Z,6.72
2022-08-05T05:09:37.240Z,6.75
2022-08-05T05:12:06.311Z,6.32
2022-08-05T05:14:36.299Z,6.00
2022-08-05T05:17:03.740Z,6.70
2022-08-05T05:19:36.891Z,8.10
2022-08-05T05:22:24.320Z,6.70
2022-08-05T05:24:59.909Z,6.40
2022-08-05T05:27:45.867Z,6.67
2022-08-05T05:30:30.914Z,6.75
2022-08-05T05:33:08.871Z,7.00
2022-08-05T05:35:48.121Z,6.55
2022-08-05T05:38:26.875Z,6.95
2022-08-05T05:40:57.779Z,7.65
2022-08-05T05:43:54.266Z,6.72
2022-08-05T05:46:16.013Z,6.97
2022-08-05T05:48:46.034Z,8.10
2022-08-05T05:51:22.562Z,8.60
2022-08-05T05:53:57.977Z,7.82
2022-08-05T05:56:32.937Z,9.05
2022-08-05T05:59:08.213Z,9.05
2022-08-05T06:01:57.400Z,8.82
2022-08-05T06:04:25.116Z,9.45
2022-08-05T06:06:52.131Z,9.93
2022-08-05T06:09:25.944Z,11.63
2022-08-05T06:12:06.377Z,11.25
2022-08-05T06:14:36.506Z,10.98
2022-08-05T06:17:22.672Z,11.13
2022-08-05T06:19:56.896Z,7.20
2022-08-05T06:24:55.005Z,6.20
2022-08-05T06:28:12.352Z,6.50
2022-08-05T06:30:17.809Z,6.40
2022-08-05T06:32:48.299Z,5.82
2022-08-05T06:36:02.870Z,5.25
2022-08-05T06:38:11.345Z,5.90
2022-08-05T06:40:42.103Z,6.00
2022-08-05T06:43:57.713Z,5.80
2022-08-05T06:46:07.025Z,4.80
2022-08-05T06:48:54.558Z,4.90
2022-08-05T06:51:29.507Z,5.50
2022-08-05T06:54:04.141Z,5.03
2022-08-05T06:56:33.890Z,5.22
2022-08-05T06:59:01.836Z,5.13
2022-08-05T07:01:32.465Z,4.72
2022-08-05T07:04:02.494Z,4.00
2022-08-05T07:06:30.138Z,4.70
2022-08-05T07:08:59.110Z,4.35
2022-08-05T07:11:28.769Z,4.47
2022-08-05T07:14:20.586Z,4.65
2022-08-05T07:18:00.226Z,3.92
2022-08-05T07:22:35.832Z,4.30
2022-08-05T07:25:21.828Z,4.97
2022-08-05T07:27:58.635Z,4.28
2022-08-05T07:30:39.691Z,4.00
2022-08-05T07:33:10.639Z,4.13
2022-08-05T07:36:03.319Z,3.75
2022-08-05T07:38:34.078Z,3.92
2022-08-05T07:41:35.007Z,4.07
2022-08-05T07:43:56.635Z,4.07
2022-08-05T07:46:26.214Z,3.97
2022-08-05T07:49:02.216Z,3.88
2022-08-05T07:51:40.333Z,4.35
2022-08-05T07:54:16.190Z,4.18
2022-08-05T07:57:02.007Z,4.18
2022-08-05T07:59:40.527Z,3.78
2022-08-05T08:02:15.634Z,4.00
2022-08-05T08:04:45.991Z,3.53
2022-08-05T08:07:13.721Z,3.63
2022-08-05T08:09:40.822Z,3.38
2022-08-05T08:12:35.674Z,3.55
2022-08-05T08:14:55.073Z,3.50
2022-08-05T08:17:22.245Z,3.78
2022-08-05T08:20:22.498Z,3.47
2022-08-05T08:22:37.867Z,3.40
2022-08-05T08:25:16.155Z,3.40
2022-08-05T08:27:47.460Z,3.17
2022-08-05T08:30:29.879Z,3.08
2022-08-05T08:33:08.570Z,3.78
2022-08-05T08:35:41.431Z,3.80
2022-08-05T08:38:35.273Z,3.97
2022-08-05T08:41:10.733Z,4.10
2022-08-05T08:45:17.167Z,3.85
2022-08-05T08:46:31.179Z,3.58
2022-08-05T08:49:17.471Z,3.47
2022-08-05T08:52:03.433Z,3.95
2022-08-05T08:54:36.403Z,3.85
2022-08-05T08:57:11.434Z,3.25
2022-08-05T08:59:41.922Z,3.10
2022-08-05T09:02:16.772Z,3.42
2022-08-05T09:04:58.386Z,2.70
2022-08-05T09:07:39.870Z,3.10
2022-08-05T09:10:20.373Z,3.20
2022-08-05T09:12:50.904Z,2.97
2022-08-05T09:15:20.381Z,2.92
2022-08-05T09:17:49.578Z,3.00
2022-08-05T09:20:21.059Z,2.97
2022-08-05T09:23:19.666Z,3.00
2022-08-05T09:26:06.442Z,3.00
2022-08-05T09:28:37.846Z,3.17
2022-08-05T09:31:43.534Z,3.30
2022-08-05T09:34:01.084Z,3.08
2022-08-05T09:36:55.251Z,2.95
2022-08-05T09:39:39.482Z,3.33
2022-08-05T09:42:23.271Z,3.05
2022-08-05T09:44:56.600Z,3.00
2022-08-05T09:47:48.019Z,2.80
2022-08-05T09:50:17.922Z,2.80
2022-08-05T09:52:59.375Z,3.17
2022-08-05T09:55:58.579Z,2.90
2022-08-05T09:58:15.630Z,2.70
2022-08-05T10:01:13.560Z,2.55
2022-08-05T10:04:02.164Z,2.55
2022-08-05T10:06:31.889Z,3.05
2022-08-05T10:09:25.167Z,2.65
2022-08-05T10:11:56.147Z,2.88
2022-08-05T10:14:32.220Z,3.10
2022-08-05T10:17:36.940Z,2.97
2022-08-05T10:20:09.942Z,2.90
2022-08-05T10:22:43.170Z,2.83
2022-08-05T10:25:19.156Z,2.63
2022-08-05T10:28:13.936Z,2.70
2022-08-05T10:31:20.213Z,2.97
2022-08-05T10:33:29.021Z,2.75
2022-08-05T10:35:59.898Z,3.03
2022-08-05T10:38:33.310Z,2.70
2022-08-05T10:41:13.855Z,3.05
2022-08-05T10:43:54.588Z,3.47
2022-08-05T10:46:24.054Z,3.40
2022-08-05T10:49:01.489Z,3.75
2022-08-05T10:51:48.655Z,3.33
2022-08-05T10:54:56.535Z,3.70
2022-08-05T10:57:31.843Z,3.70
2022-08-05T11:00:28.921Z,3.45
2022-08-05T11:03:24.501Z,3.60
2022-08-05T11:06:15.406Z,3.17
2022-08-05T11:09:16.582Z,3.13
2022-08-05T11:11:53.561Z,3.20
2022-08-05T11:15:11.844Z,3.50
2022-08-05T11:17:59.345Z,3.38
2022-08-05T11:20:48.403Z,3.60
2022-08-05T11:24:05.160Z,4.30
2022-08-05T11:26:32.238Z,4.18
2022-08-05T11:29:13.265Z,3.95
2022-08-05T11:31:58.457Z,4.03
2022-08-05T11:34:39.770Z,3.95
2022-08-05T11:38:29.277Z,4.28
2022-08-05T11:40:00.479Z,5.13
2022-08-05T11:42:40.192Z,5.50
2022-08-05T11:45:23.132Z,5.45
2022-08-05T11:47:55.416Z,5.55
2022-08-05T11:50:23.008Z,5.30
2022-08-05T11:52:55.709Z,5.13
2022-08-05T11:55:32.188Z,4.55
2022-08-05T11:58:09.202Z,4.05
2022-08-05T12:00:39.023Z,3.97
2022-08-05T12:03:28.726Z,4.25
2022-08-05T12:06:01.633Z,4.00
2022-08-05T12:08:31.735Z,4.32
2022-08-05T12:11:04.119Z,4.03
2022-08-05T12:13:48.821Z,4.40
2022-08-05T12:16:19.628Z,4.25
2022-08-05T12:18:52.220Z,3.60
2022-08-05T12:21:24.620Z,4.40
2022-08-05T12:24:06.401Z,3.92
2022-08-05T12:26:38.776Z,4.78
2022-08-05T12:29:15.956Z,4.43
2022-08-05T12:31:56.285Z,4.30
2022-08-05T12:34:28.555Z,4.40
2022-08-05T12:37:00.787Z,4.63
2022-08-05T12:39:34.615Z,4.97
2022-08-05T12:42:18.919Z,5.00
2022-08-05T12:44:47.561Z,4.63
2022-08-05T12:47:26.765Z,5.25
2022-08-05T12:50:04.561Z,5.25
2022-08-05T12:52:41.611Z,5.43
2022-08-05T12:55:25.541Z,5.45
2022-08-05T12:58:49.460Z,5.70
2022-08-05T13:02:02.433Z,5.40
2022-08-05T13:03:41.842Z,5.07
2022-08-05T13:06:17.246Z,5.68
2022-08-05T13:08:51.666Z,5.03
2022-08-05T13:12:01.121Z,5.78
2022-08-05T13:14:25.052Z,5.80
2022-08-05T13:17:07.224Z,5.90
2022-08-05T13:19:51.691Z,5.72
2022-08-05T13:25:00.341Z,5.40
2022-08-05T13:27:39.697Z,5.63
2022-08-05T13:30:35.185Z,5.60
2022-08-05T13:33:01.616Z,4.90
2022-08-05T13:35:43.326Z,5.28
2022-08-05T13:38:28.489Z,5.68
2022-08-05T13:41:01.192Z,4.57
2022-08-05T13:43:43.557Z,4.88
2022-08-05T13:46:13.518Z,4.68
2022-08-05T13:48:58.485Z,4.95
2022-08-05T13:51:36.577Z,4.80
2022-08-05T13:54:12.519Z,4.40
2022-08-05T13:56:45.144Z,4.70
2022-08-05T13:59:19.301Z,5.57
2022-08-05T14:01:58.210Z,4.55
2022-08-05T14:04:51.613Z,4.60
2022-08-05T14:08:00.348Z,4.88
2022-08-05T14:10:28.452Z,5.15
2022-08-05T14:12:57.189Z,4.85
2022-08-05T14:16:05.914Z,4.82
2022-08-05T14:18:14.746Z,4.18
2022-08-05T14:20:47.955Z,3.15
2022-08-05T14:23:23.347Z,3.30
2022-08-05T14:25:58.014Z,2.90
2022-08-05T14:28:29.979Z,3.40
2022-08-05T14:30:58.144Z,3.53
2022-08-05T14:33:25.129Z,2.83
2022-08-05T14:35:54.266Z,3.22
2022-08-05T14:38:32.267Z,2.97
2022-08-05T14:41:06.206Z,2.75
2022-08-05T14:43:57.778Z,2.63
2022-08-05T14:46:28.083Z,2.50
2022-08-05T14:48:58.139Z,2.40
2022-08-05T14:51:26.508Z,2.30
2022-08-05T14:54:26.685Z,2.25
2022-08-05T14:56:46.934Z,2.22
2022-08-05T14:59:15.196Z,2.35
2022-08-05T15:01:48.947Z,2.40
2022-08-05T15:04:20.315Z,2.03
2022-08-05T15:06:49.244Z,2.58
2022-08-05T15:09:51.618Z,2.45
2022-08-05T15:12:26.893Z,2.38
2022-08-05T15:14:54.670Z,2.30
2022-08-05T15:17:47.781Z,2.63
2022-08-05T15:20:18.492Z,2.33
2022-08-05T15:22:46.787Z,2.10
2022-08-05T15:25:23.645Z,2.20
2022-08-05T15:28:08.834Z,2.15
2022-08-05T15:30:41.797Z,2.47
2022-08-05T15:33:10.717Z,2.30
2022-08-05T15:35:44.939Z,2.30
2022-08-05T15:38:33.752Z,2.05
2022-08-05T15:41:23.970Z,1.92
2022-08-05T15:43:47.492Z,2.38
2022-08-05T15:46:14.704Z,1.90
2022-08-05T15:48:51.950Z,2.05
2022-08-05T15:52:12.645Z,2.20
2022-08-05T15:54:16.098Z,1.98
2022-08-05T15:56:43.460Z,1.90
2022-08-05T15:59:22.255Z,1.55
2022-08-05T16:01:52.741Z,1.90
2022-08-05T16:04:25.507Z,1.65
2022-08-05T16:06:55.983Z,1.60
2022-08-05T16:09:25.016Z,1.80
2022-08-05T16:11:54.068Z,1.70
2022-08-05T16:14:22.412Z,1.65
2022-08-05T16:16:49.829Z,1.75
2022-08-05T16:19:25.287Z,1.75
2022-08-05T16:22:04.399Z,2.00
2022-08-05T16:24:41.922Z,1.77
2022-08-05T16:27:19.607Z,1.92
2022-08-05T16:30:08.379Z,1.85
2022-08-05T16:32:50.582Z,1.60
2022-08-05T16:35:17.552Z,1.70
2022-08-05T16:38:03.340Z,1.77
2022-08-05T16:40:32.320Z,1.60
2022-08-05T16:43:00.015Z,1.77
2022-08-05T16:46:04.415Z,1.70
2022-08-05T16:48:25.461Z,1.50
2022-08-05T16:51:00.018Z,1.90
2022-08-05T16:53:32.117Z,1.70
2022-08-05T16:55:59.708Z,1.42
2022-08-05T16:58:26.671Z,1.70
2022-08-05T17:00:53.670Z,1.83
2022-08-05T17:03:21.921Z,1.65
2022-08-05T17:05:54.282Z,1.65
2022-08-05T17:08:35.936Z,1.73
2022-08-05T17:11:16.909Z,2.03
2022-08-05T17:13:45.214Z,2.33
2022-08-05T17:16:33.037Z,1.88
2022-08-05T17:19:00.145Z,1.90
2022-08-05T17:21:35.410Z,1.75
2022-08-05T17:24:19.648Z,1.40
2022-08-05T17:26:56.470Z,1.73
2022-08-05T17:29:33.428Z,1.77
2022-08-05T17:32:06.793Z,1.83
2022-08-05T17:34:35.470Z,1.90
2022-08-05T17:37:02.512Z,2.15
2022-08-05T17:39:34.357Z,1.90
2022-08-05T17:42:18.901Z,2.13
2022-08-05T17:44:50.347Z,2.00
2022-08-05T17:47:22.021Z,2.30
2022-08-05T17:50:00.429Z,1.88
2022-08-05T17:52:35.100Z,1.77
2022-08-05T17:55:21.717Z,2.22
2022-08-05T17:57:50.345Z,2.05
2022-08-05T18:00:18.477Z,2.03
2022-08-05T18:02:47.287Z,2.10
2022-08-05T18:05:16.798Z,2.17
2022-08-05T18:07:44.703Z,1.90
2022-08-05T18:10:20.443Z,1.80
2022-08-05T18:12:49.434Z,2.03
2022-08-05T18:15:16.497Z,1.70
2022-08-05T18:18:00.794Z,2.15
2022-08-05T18:20:31.561Z,1.90
2022-08-05T18:23:00.543Z,2.10
2022-08-05T18:25:35.968Z,2.05
2022-08-05T18:28:05.162Z,1.65
2022-08-05T18:30:33.244Z,2.00
2022-08-05T18:33:01.306Z,2.20
2022-08-05T18:36:00.912Z,1.90
2022-08-05T18:38:19.040Z,2.03
2022-08-05T18:41:58.404Z,2.45
2022-08-05T18:43:43.063Z,2.17
2022-08-05T18:46:20.306Z,2.25
2022-08-05T18:48:52.144Z,1.95
2022-08-05T18:52:06.651Z,2.00
2022-08-05T18:54:31.303Z,2.08
2022-08-05T18:57:00.950Z,2.30
2022-08-05T18:59:42.966Z,2.70
2022-08-05T19:02:28.114Z,2.30
2022-08-05T19:06:13.496Z,1.75
2022-08-05T19:07:53.167Z,2.13
2022-08-05T19:10:28.252Z,1.90
2022-08-05T19:12:56.693Z,2.10
2022-08-05T19:15:57.083Z,2.65
2022-08-05T19:18:13.648Z,2.28
2022-08-05T19:20:53.749Z,3.30
2022-08-05T19:24:03.688Z,3.92
2022-08-05T19:26:09.190Z,2.40
2022-08-05T19:28:42.171Z,2.50
2022-08-05T19:31:13.575Z,2.10
2022-08-05T19:33:48.710Z,2.10
2022-08-05T19:36:25.654Z,2.50
2022-08-05T19:38:55.172Z,2.65
2022-08-05T19:42:05.428Z,2.30
2022-08-05T19:44:14.562Z,2.40
2022-08-05T19:46:43.720Z,2.00
2022-08-05T19:49:12.511Z,2.22
2022-08-05T19:52:04.681Z,1.83
2022-08-05T19:54:32.916Z,2.53
2022-08-05T19:57:06.547Z,2.22
2022-08-05T19:59:54.669Z,1.98
2022-08-05T20:02:26.313Z,1.70
2022-08-05T20:04:55.450Z,1.98
2022-08-05T20:07:45.964Z,2.00
2022-08-05T20:10:14.769Z,1.92
2022-08-05T20:12:46.028Z,1.90
2022-08-05T20:15:48.561Z,1.80
2022-08-05T20:18:10.287Z,1.65
2022-08-05T20:20:51.461Z,2.75
2022-08-05T20:23:22.359Z,2.78
2022-08-05T20:25:49.278Z,1.73
2022-08-05T20:28:19.982Z,1.77
2022-08-05T20:30:47.909Z,1.80
2022-08-05T20:33:16.681Z,1.90
2022-08-05T20:35:45.565Z,2.22
2022-08-05T20:38:20.102Z,2.00
2022-08-05T20:40:53.649Z,1.92
2022-08-05T20:43:57.469Z,2.10
2022-08-05T20:46:10.283Z,1.85
2022-08-05T20:48:45.260Z,2.00
2022-08-05T20:51:17.869Z,1.70
2022-08-05T20:53:56.715Z,1.98
2022-08-05T20:56:28.931Z,1.77
2022-08-05T20:58:59.995Z,2.10
2022-08-05T21:01:39.041Z,2.50
2022-08-05T21:04:10.589Z,1.80
2022-08-05T21:06:45.722Z,2.20
2022-08-05T21:09:16.811Z,2.05
2022-08-05T21:12:09.457Z,1.80
2022-08-05T21:14:32.027Z,1.90
2022-08-05T21:17:05.246Z,2.20
2022-08-05T21:19:47.085Z,2.50
2022-08-05T21:22:23.415Z,2.13
2022-08-05T21:24:52.427Z,2.10
2022-08-05T21:27:25.124Z,2.25
2022-08-05T21:29:57.073Z,2.07
2022-08-05T21:32:26.691Z,2.22
2022-08-05T21:35:08.851Z,2.20
2022-08-05T21:37:47.261Z,2.08
2022-08-05T21:40:21.850Z,2.25
2022-08-05T21:42:49.019Z,2.10
2022-08-05T21:45:24.422Z,1.80
2022-08-05T21:47:56.384Z,1.60
2022-08-05T21:50:26.342Z,1.80
2022-08-05T21:52:53.813Z,1.60
2022-08-05T21:55:42.782Z,2.47
2022-08-05T21:58:13.030Z,3.92
2022-08-05T22:00:40.271Z,2.15
2022-08-05T22:03:09.907Z,1.50
2022-08-05T22:05:48.830Z,1.70
2022-08-05T22:08:22.193Z,1.85
2022-08-05T22:10:51.731Z,1.52
2022-08-05T22:14:19.710Z,1.42
2022-08-05T22:16:26.076Z,1.60
2022-08-05T22:18:54.114Z,1.35
2022-08-05T22:21:25.745Z,1.58
2022-08-05T22:24:13.161Z,1.42
2022-08-05T22:27:17.379Z,1.52
2022-08-05T22:29:44.559Z,1.58
2022-08-05T22:32:12.877Z,1.98
2022-08-05T22:34:45.821Z,2.05
2022-08-05T22:37:12.873Z,2.00
2022-08-05T22:39:39.891Z,1.88
2022-08-05T22:42:12.676Z,1.90
2022-08-05T22:44:53.662Z,2.00
2022-08-05T22:47:29.075Z,2.10
2022-08-05T22:50:20.330Z,2.42
2022-08-05T22:52:44.116Z,2.75
2022-08-05T22:55:18.886Z,4.57
2022-08-05T22:57:52.367Z,2.20
2022-08-05T23:00:21.840Z,2.50
2022-08-05T23:02:49.962Z,2.33
2022-08-05T23:05:18.343Z,1.98
2022-08-05T23:07:49.545Z,2.28
2022-08-05T23:10:20.075Z,2.40
2022-08-05T23:12:51.653Z,1.75
2022-08-05T23:15:26.921Z,1.67
2022-08-05T23:18:00.970Z,1.92
2022-08-05T23:20:33.564Z,1.85
2022-08-05T23:23:05.828Z,1.52
2022-08-05T23:25:52.477Z,1.73
2022-08-05T23:28:23.043Z,1.80
2022-08-05T23:30:53.768Z,1.98
2022-08-05T23:34:03.353Z,1.83
2022-08-05T23:36:10.543Z,4.07
2022-08-05T23:38:38.153Z,2.05
2022-08-05T23:41:05.237Z,1.98
2022-08-05T23:43:37.298Z,2.00
2022-08-05T23:46:21.776Z,2.05
2022-08-05T23:49:00.608Z,2.17
2022-08-05T23:51:52.692Z,2.35
2022-08-05T23:54:36.445Z,2.00
2022-08-05T23:57:06.193Z,2.10
